createdAt,value
2022-08-17T00:01:46.455Z,101268.19
2022-08-17T00:04:19.426Z,101242.75
2022-08-17T00:06:49.180Z,101261.69
2022-08-17T00:09:18.972Z,101258.66
2022-08-17T00:12:35.115Z,101250.47
2022-08-17T00:14:35.973Z,101247.53
2022-08-17T00:17:04.516Z,101224.03
2022-08-17T00:19:34.755Z,101259.06
2022-08-17T00:22:33.672Z,101262.84
2022-08-17T00:24:49.709Z,101246.66
2022-08-17T00:27:16.142Z,101280.59
2022-08-17T00:29:42.545Z,101278.28
2022-08-17T00:33:15.411Z,101282.25
2022-08-17T00:34:55.335Z,101275.13
2022-08-17T00:37:21.756Z,101276.81
2022-08-17T00:39:48.202Z,101277.41
2022-08-17T00:42:16.376Z,101273.63
2022-08-17T00:44:42.835Z,101272.75
2022-08-17T00:47:09.316Z,101272.13
2022-08-17T00:49:35.708Z,101272.81
2022-08-17T00:52:12.033Z,101242.88
2022-08-17T00:54:42.378Z,101257.03
2022-08-17T00:57:14.837Z,101263.72
2022-08-17T00:59:47.111Z,101255.13
2022-08-17T01:02:31.030Z,101260.38
2022-08-17T01:05:07.884Z,101258.31
2022-08-17T01:07:34.661Z,101245.69
2022-08-17T01:10:58.881Z,101261.41
2022-08-17T01:12:56.693Z,101263.88
2022-08-17T01:15:23.351Z,101264.56
2022-08-17T01:17:50.082Z,101266.97
2022-08-17T01:20:16.889Z,101240.69
2022-08-17T01:22:43.388Z,101268.50
2022-08-17T01:25:11.440Z,101260.09
2022-08-17T01:27:38.843Z,101262.44
2022-08-17T01:30:56.628Z,101241.91
2022-08-17T01:32:56.541Z,101252.34
2022-08-17T01:35:22.956Z,101240.97
2022-08-17T01:37:49.653Z,101250.50
2022-08-17T01:40:28.360Z,101253.59
2022-08-17T01:43:00.712Z,101255.38
2022-08-17T01:45:33.650Z,101254.50
2022-08-17T01:48:00.888Z,101256.66
2022-08-17T01:50:31.913Z,101236.63
2022-08-17T01:53:02.752Z,101271.50
2022-08-17T01:55:38.178Z,101271.66
2022-08-17T01:58:09.568Z,101277.97
2022-08-17T02:01:00.043Z,101273.38
2022-08-17T02:03:27.227Z,101275.31
2022-08-17T02:05:53.762Z,101273.66
2022-08-17T02:08:37.220Z,101264.44
2022-08-17T02:11:11.678Z,101261.50
2022-08-17T02:13:39.151Z,101264.63
2022-08-17T02:16:05.717Z,101259.38
2022-08-17T02:18:32.271Z,101256.09
2022-08-17T02:20:59.364Z,101258.81
2022-08-17T02:23:29.322Z,101269.72
2022-08-17T02:25:58.148Z,101268.69
2022-08-17T02:28:24.912Z,101272.88
2022-08-17T02:31:00.970Z,101248.00
2022-08-17T02:33:42.082Z,101268.47
2022-08-17T02:36:11.440Z,101273.09
2022-08-17T02:38:38.543Z,101274.16
2022-08-17T02:41:05.099Z,101271.22
2022-08-17T02:43:31.850Z,101270.00
2022-08-17T02:45:58.266Z,101256.59
2022-08-17T02:48:28.029Z,101260.78
2022-08-17T02:50:57.974Z,101260.34
2022-08-17T02:53:24.425Z,101232.16
2022-08-17T02:55:52.746Z,101248.19
2022-08-17T02:58:34.806Z,101251.13
2022-08-17T03:01:04.639Z,101236.47
2022-08-17T03:03:31.122Z,101239.84
2022-08-17T03:05:57.848Z,101238.59
2022-08-17T03:08:25.454Z,101240.69
2022-08-17T03:10:51.984Z,101234.88
2022-08-17T03:13:18.428Z,101242.00
2022-08-17T03:15:46.294Z,101238.81
2022-08-17T03:18:24.209Z,101241.53
2022-08-17T03:20:57.231Z,101246.09
2022-08-17T03:23:25.466Z,101233.75
2022-08-17T03:25:53.936Z,101236.69
2022-08-17T03:28:21.729Z,101240.41
2022-08-17T03:30:48.280Z,101256.38
2022-08-17T03:33:14.814Z,101249.06
2022-08-17T03:35:41.825Z,101250.34
2022-08-17T03:38:10.939Z,101240.53
2022-08-17T03:40:56.673Z,101260.41
2022-08-17T03:43:25.543Z,101247.91
2022-08-17T03:46:28.310Z,101231.16
2022-08-17T03:49:15.650Z,101239.09
2022-08-17T03:52:00.461Z,101240.59
2022-08-17T03:54:45.317Z,101243.50
2022-08-17T03:57:12.395Z,101211.53
2022-08-17T03:59:41.047Z,101241.63
2022-08-17T04:02:19.620Z,101244.94
2022-08-17T04:04:46.848Z,101220.28
2022-08-17T04:07:13.342Z,101251.41
2022-08-17T04:09:39.776Z,101244.53
2022-08-17T04:12:06.360Z,101252.50
2022-08-17T04:14:39.260Z,101250.63
2022-08-17T04:17:21.623Z,101252.88
2022-08-17T04:19:48.024Z,101257.47
2022-08-17T04:22:30.846Z,101263.75
2022-08-17T04:25:01.296Z,101262.88
2022-08-17T04:27:27.692Z,101260.97
2022-08-17T04:29:54.803Z,101257.22
2022-08-17T04:32:58.576Z,101254.06
2022-08-17T04:35:09.757Z,101262.44
2022-08-17T04:37:36.175Z,101262.44
2022-08-17T04:40:22.125Z,101264.94
2022-08-17T04:43:05.068Z,101266.19
2022-08-17T04:45:32.282Z,101268.84
2022-08-17T04:48:00.427Z,101266.97
2022-08-17T04:50:27.153Z,101274.97
2022-08-17T04:52:53.692Z,101272.25
2022-08-17T04:55:20.287Z,101274.56
2022-08-17T04:57:46.709Z,101269.03
2022-08-17T05:00:13.634Z,101272.25
2022-08-17T05:02:51.002Z,101279.38
2022-08-17T05:05:20.756Z,101281.47
2022-08-17T05:07:47.979Z,101282.09
2022-08-17T05:10:14.401Z,101295.50
2022-08-17T05:12:40.801Z,101297.38
2022-08-17T05:15:14.216Z,101286.22
2022-08-17T05:17:40.634Z,101292.47
2022-08-17T05:20:07.542Z,101287.63
2022-08-17T05:22:33.968Z,101290.97
2022-08-17T05:25:01.941Z,101285.53
2022-08-17T05:27:29.818Z,101291.84
2022-08-17T05:30:02.293Z,101289.13
2022-08-17T05:32:37.339Z,101289.09
2022-08-17T05:35:07.274Z,101296.38
2022-08-17T05:37:33.672Z,101287.84
2022-08-17T05:40:00.227Z,101297.84
2022-08-17T05:42:26.788Z,101280.53
2022-08-17T05:44:56.528Z,101294.53
2022-08-17T05:47:25.147Z,101295.75
2022-08-17T05:49:53.725Z,101289.06
2022-08-17T05:52:29.274Z,101294.44
2022-08-17T05:55:20.625Z,101292.88
2022-08-17T05:58:10.964Z,101290.16
2022-08-17T06:00:54.100Z,101301.13
2022-08-17T06:03:53.264Z,101299.25
2022-08-17T06:06:33.623Z,101306.63
2022-08-17T06:09:32.990Z,101309.22
2022-08-17T06:12:07.217Z,101310.28
2022-08-17T06:15:07.848Z,101322.47
2022-08-17T06:17:34.557Z,101314.91
2022-08-17T06:20:08.122Z,101301.34
2022-08-17T06:22:40.865Z,101306.06
2022-08-17T06:25:38.493Z,101322.47
2022-08-17T06:28:13.859Z,101321.63
2022-08-17T06:30:59.561Z,101321.56
2022-08-17T06:33:37.734Z,101316.16
2022-08-17T06:36:28.020Z,101311.34
2022-08-17T06:39:12.769Z,101294.72
2022-08-17T06:42:05.607Z,101302.72
2022-08-17T06:45:10.383Z,101294.88
2022-08-17T06:47:58.055Z,101301.31
2022-08-17T06:50:44.356Z,101312.19
2022-08-17T06:53:38.220Z,101311.13
2022-08-17T06:56:13.975Z,101311.75
2022-08-17T06:58:43.270Z,101308.97
2022-08-17T07:01:15.210Z,101311.91
2022-08-17T07:03:49.758Z,101315.63
2022-08-17T07:06:21.009Z,101306.28
2022-08-17T07:08:55.500Z,101315.72
2022-08-17T07:11:36.165Z,101315.72
2022-08-17T07:14:27.348Z,101330.75
2022-08-17T07:16:56.844Z,101320.03
2022-08-17T07:19:26.716Z,101308.53
2022-08-17T07:22:05.058Z,101329.41
2022-08-17T07:24:57.119Z,101319.78
2022-08-17T07:27:37.094Z,101320.97
2022-08-17T07:30:11.063Z,101319.44
2022-08-17T07:32:51.440Z,101309.56
2022-08-17T07:35:20.998Z,101297.06
2022-08-17T07:38:07.111Z,101307.19
2022-08-17T07:41:02.068Z,101306.28
2022-08-17T07:43:40.757Z,101306.28
2022-08-17T07:46:50.328Z,101308.06
2022-08-17T07:49:24.041Z,101301.22
2022-08-17T07:51:50.440Z,101304.50
2022-08-17T07:54:22.423Z,101302.09
2022-08-17T07:57:08.539Z,101302.94
2022-08-17T07:59:40.726Z,101291.91
2022-08-17T08:02:33.662Z,101294.53
2022-08-17T08:05:06.639Z,101294.28
2022-08-17T08:07:54.920Z,101293.63
2022-08-17T08:10:35.515Z,101290.78
2022-08-17T08:13:22.933Z,101289.78
2022-08-17T08:15:54.047Z,101291.91
2022-08-17T08:18:54.605Z,101292.75
2022-08-17T08:21:22.012Z,101300.00
2022-08-17T08:24:00.507Z,101303.16
2022-08-17T08:26:49.315Z,101300.47
2022-08-17T08:29:41.189Z,101297.09
2022-08-17T08:32:32.113Z,101298.94
2022-08-17T08:35:22.631Z,101301.91
2022-08-17T08:38:10.091Z,101290.06
2022-08-17T08:40:43.244Z,101295.22
2022-08-17T08:43:29.684Z,101298.81
2022-08-17T08:46:13.019Z,101298.69
2022-08-17T08:49:10.033Z,101297.78
2022-08-17T08:51:46.429Z,101308.69
2022-08-17T08:54:34.973Z,101318.22
2022-08-17T08:57:26.830Z,101315.84
2022-08-17T08:59:59.548Z,101310.44
2022-08-17T09:02:53.452Z,101321.59
2022-08-17T09:05:37.749Z,101312.41
2022-08-17T09:08:17.392Z,101310.88
2022-08-17T09:11:07.660Z,101314.66
2022-08-17T09:13:43.719Z,101315.75
2022-08-17T09:16:19.563Z,101310.97
2022-08-17T09:19:01.609Z,101312.16
2022-08-17T09:21:44.602Z,101304.94
2022-08-17T09:24:27.710Z,101308.75
2022-08-17T09:27:21.661Z,101306.75
2022-08-17T09:29:51.608Z,101315.38
2022-08-17T09:32:21.678Z,101315.63
2022-08-17T09:34:53.514Z,101312.50
2022-08-17T09:37:33.632Z,101319.00
2022-08-17T09:40:15.695Z,101310.66
2022-08-17T09:42:49.747Z,101312.69
2022-08-17T09:45:29.944Z,101284.50
2022-08-17T09:48:12.220Z,101308.38
2022-08-17T09:51:05.138Z,101302.56
2022-08-17T09:53:32.484Z,101308.44
2022-08-17T09:56:24.114Z,101307.63
2022-08-17T09:59:09.792Z,101318.47
2022-08-17T10:01:56.818Z,101322.34
2022-08-17T10:04:44.330Z,101308.97
2022-08-17T10:07:31.917Z,101304.88
2022-08-17T10:10:41.836Z,101296.31
2022-08-17T10:13:35.362Z,101287.59
2022-08-17T10:16:12.867Z,101296.22
2022-08-17T10:18:50.080Z,101298.06
2022-08-17T10:21:36.063Z,101296.38
2022-08-17T10:24:36.383Z,101307.22
2022-08-17T10:27:11.010Z,101302.44
2022-08-17T10:29:57.039Z,101295.28
2022-08-17T10:32:32.802Z,101298.34
2022-08-17T10:35:26.695Z,101287.09
2022-08-17T10:38:24.367Z,101289.00
2022-08-17T10:40:57.726Z,101259.88
2022-08-17T10:43:44.656Z,101259.31
2022-08-17T10:46:43.209Z,101286.66
2022-08-17T10:49:17.620Z,101297.78
2022-08-17T10:51:53.437Z,101292.16
2022-08-17T10:54:34.090Z,101288.88
2022-08-17T10:57:00.684Z,101287.81
2022-08-17T10:59:36.012Z,101286.88
2022-08-17T11:02:23.119Z,101286.63
2022-08-17T11:04:57.591Z,101267.19
2022-08-17T11:07:45.580Z,101281.91
2022-08-17T11:10:30.965Z,101267.59
2022-08-17T11:13:21.717Z,101276.91
2022-08-17T11:16:08.383Z,101280.94
2022-08-17T11:19:09.894Z,101284.06
2022-08-17T11:21:58.245Z,101284.91
2022-08-17T11:24:47.795Z,101289.91
2022-08-17T11:27:28.633Z,101287.50
2022-08-17T11:30:59.856Z,101281.00
2022-08-17T11:33:29.311Z,101286.28
2022-08-17T11:36:31.538Z,101280.41
2022-08-17T11:39:28.612Z,101281.72
2022-08-17T11:42:05.519Z,101285.72
2022-08-17T11:45:00.601Z,101284.22
2022-08-17T11:48:23.733Z,101263.44
2022-08-17T11:51:09.747Z,101290.59
2022-08-17T11:53:37.103Z,101284.50
2022-08-17T11:56:09.500Z,101279.69
2022-08-17T11:58:40.798Z,101283.16
2022-08-17T12:01:13.506Z,101286.72
2022-08-17T12:03:42.402Z,101290.72
2022-08-17T12:06:34.246Z,101285.97
2022-08-17T12:09:10.462Z,101291.69
2022-08-17T12:12:11.400Z,101275.22
2022-08-17T12:15:08.428Z,101287.50
2022-08-17T12:17:40.194Z,101263.75
2022-08-17T12:20:14.989Z,101294.63
2022-08-17T12:22:47.708Z,101291.69
2022-08-17T12:25:22.261Z,101295.22
2022-08-17T12:28:06.291Z,101290.09
2022-08-17T12:30:35.064Z,101294.06
2022-08-17T12:33:01.573Z,101284.22
2022-08-17T12:35:38.810Z,101277.97
2022-08-17T12:38:31.806Z,101279.75
2022-08-17T12:40:58.329Z,101275.34
2022-08-17T12:43:27.819Z,101277.06
2022-08-17T12:46:01.111Z,101272.41
2022-08-17T12:48:39.788Z,101273.56
2022-08-17T12:51:25.891Z,101268.34
2022-08-17T12:53:54.892Z,101272.28
2022-08-17T12:56:21.509Z,101264.44
2022-08-17T12:58:55.540Z,101260.50
2022-08-17T13:01:24.995Z,101270.03
2022-08-17T13:03:54.635Z,101276.06
2022-08-17T13:06:33.503Z,101276.94
2022-08-17T13:09:12.640Z,101281.72
2022-08-17T13:11:50.952Z,101253.69
2022-08-17T13:14:20.290Z,101274.91
2022-08-17T13:16:59.405Z,101284.16
2022-08-17T13:19:39.945Z,101287.22
2022-08-17T13:22:12.655Z,101283.75
2022-08-17T13:24:53.002Z,101285.91
2022-08-17T13:27:21.419Z,101269.09
2022-08-17T13:29:53.647Z,101290.88
2022-08-17T13:32:45.741Z,101274.59
2022-08-17T13:35:32.831Z,101277.22
2022-08-17T13:38:13.195Z,101274.81
2022-08-17T13:40:43.236Z,101269.13
2022-08-17T13:43:10.816Z,101265.63
2022-08-17T13:45:44.178Z,101260.09
2022-08-17T13:48:28.568Z,101251.91
2022-08-17T13:50:54.911Z,101259.88
2022-08-17T13:53:25.824Z,101252.41
2022-08-17T13:56:00.776Z,101251.47
2022-08-17T13:58:32.909Z,101241.06
2022-08-17T14:01:29.925Z,101241.88
2022-08-17T14:03:57.515Z,101245.72
2022-08-17T14:06:52.447Z,101233.84
2022-08-17T14:09:13.525Z,101236.13
2022-08-17T14:11:40.754Z,101230.63
2022-08-17T14:14:07.361Z,101227.78
2022-08-17T14:16:33.799Z,101218.47
2022-08-17T14:19:00.197Z,101227.06
2022-08-17T14:21:29.124Z,101205.22
2022-08-17T14:23:55.530Z,101217.53
2022-08-17T14:26:22.014Z,101227.00
2022-08-17T14:28:56.517Z,101227.38
2022-08-17T14:31:23.594Z,101217.31
2022-08-17T14:33:50.151Z,101198.88
2022-08-17T14:36:16.560Z,101216.25
2022-08-17T14:38:44.080Z,101209.69
2022-08-17T14:41:11.252Z,101207.78
2022-08-17T14:43:37.936Z,101217.25
2022-08-17T14:46:05.356Z,101212.09
2022-08-17T14:48:38.374Z,101214.78
2022-08-17T14:51:05.334Z,101203.59
2022-08-17T14:53:31.956Z,101204.34
2022-08-17T14:55:58.760Z,101212.34
2022-08-17T14:58:25.961Z,101216.72
2022-08-17T15:00:52.684Z,101216.78
2022-08-17T15:03:19.407Z,101224.59
2022-08-17T15:05:46.741Z,101214.88
2022-08-17T15:08:13.175Z,101224.31
2022-08-17T15:10:39.716Z,101229.00
2022-08-17T15:13:18.015Z,101244.38
2022-08-17T15:15:44.560Z,101272.63
2022-08-17T15:18:11.041Z,101284.59
2022-08-17T15:20:37.527Z,101298.88
2022-08-17T15:23:03.950Z,101364.84
2022-08-17T15:25:32.535Z,101395.84
2022-08-17T15:28:00.085Z,101377.63
2022-08-17T15:30:27.145Z,101345.47
2022-08-17T15:32:55.445Z,101389.97
2022-08-17T15:35:27.369Z,101389.38
2022-08-17T15:37:54.279Z,101391.19
2022-08-17T15:40:21.985Z,101400.06
2022-08-17T15:42:48.956Z,101384.81
2022-08-17T15:45:16.887Z,101297.94
2022-08-17T15:47:43.321Z,101319.31
2022-08-17T15:50:10.348Z,101328.53
2022-08-17T15:52:40.116Z,101337.31
2022-08-17T15:55:10.813Z,101303.66
2022-08-17T15:57:37.417Z,101316.16
2022-08-17T16:00:06.060Z,101309.28
2022-08-17T16:03:15.060Z,101308.09
2022-08-17T16:05:24.798Z,101288.03
2022-08-17T16:07:52.490Z,101284.03
2022-08-17T16:10:19.615Z,101282.97
2022-08-17T16:12:47.591Z,101296.00
2022-08-17T16:15:14.913Z,101304.72
2022-08-17T16:17:42.187Z,101304.75
2022-08-17T16:20:20.195Z,101293.66
2022-08-17T16:22:49.599Z,101284.88
2022-08-17T16:25:21.313Z,101292.59
2022-08-17T16:27:53.389Z,101304.53
2022-08-17T16:30:22.707Z,101321.25
2022-08-17T16:32:51.612Z,101303.91
2022-08-17T16:35:21.981Z,101331.06
2022-08-17T16:37:48.993Z,101332.75
2022-08-17T16:40:16.886Z,101354.69
2022-08-17T16:42:47.952Z,101360.34
2022-08-17T16:45:18.360Z,101362.44
2022-08-17T16:47:45.052Z,101361.38
2022-08-17T16:50:13.837Z,101361.56
2022-08-17T16:52:40.887Z,101344.66
2022-08-17T16:55:10.600Z,101329.75
2022-08-17T16:57:47.284Z,101332.25
2022-08-17T17:00:17.763Z,101335.63
2022-08-17T17:02:47.216Z,101337.72
2022-08-17T17:05:22.250Z,101332.72
2022-08-17T17:07:53.349Z,101330.53
2022-08-17T17:10:23.871Z,101342.47
2022-08-17T17:13:01.274Z,101333.94
2022-08-17T17:15:41.010Z,101335.78
2022-08-17T17:18:11.480Z,101333.63
2022-08-17T17:20:47.648Z,101338.81
2022-08-17T17:23:32.539Z,101333.41
2022-08-17T17:26:21.643Z,101328.81
2022-08-17T17:29:03.733Z,101331.69
2022-08-17T17:31:39.337Z,101332.03
2022-08-17T17:34:10.178Z,101334.19
2022-08-17T17:36:46.071Z,101331.00
2022-08-17T17:39:31.852Z,101325.19
2022-08-17T17:42:07.483Z,101326.16
2022-08-17T17:44:40.353Z,101321.16
2022-08-17T17:47:07.516Z,101315.06
2022-08-17T17:49:38.011Z,101310.03
2022-08-17T17:52:19.096Z,101318.38
2022-08-17T17:54:55.204Z,101312.03
2022-08-17T17:57:45.014Z,101316.69
2022-08-17T18:00:20.620Z,101312.41
2022-08-17T18:02:53.305Z,101306.31
2022-08-17T18:05:40.562Z,101302.38
2022-08-17T18:08:32.273Z,101292.50
2022-08-17T18:11:27.259Z,101297.13
2022-08-17T18:14:42.190Z,101303.09
2022-08-17T18:17:08.908Z,101301.41
2022-08-17T18:19:39.908Z,101268.41
2022-08-17T18:22:14.410Z,101297.19
2022-08-17T18:24:44.533Z,101307.81
2022-08-17T18:27:34.450Z,101309.50
2022-08-17T18:30:24.854Z,101306.56
2022-08-17T18:32:51.279Z,101299.50
2022-08-17T18:35:22.181Z,101310.22
2022-08-17T18:38:11.531Z,101308.31
2022-08-17T18:40:38.447Z,101307.69
2022-08-17T18:43:06.813Z,101320.66
2022-08-17T18:45:48.494Z,101320.44
2022-08-17T18:48:24.047Z,101323.16
2022-08-17T18:50:53.573Z,101319.59
2022-08-17T18:53:26.823Z,101311.38
2022-08-17T18:56:30.697Z,101320.78
2022-08-17T18:59:18.388Z,101319.91
2022-08-17T19:02:27.375Z,101325.84
2022-08-17T19:05:26.469Z,101294.13
2022-08-17T19:07:53.388Z,101326.69
2022-08-17T19:10:28.148Z,101326.25
2022-08-17T19:13:14.928Z,101326.59
2022-08-17T19:16:12.216Z,101296.09
2022-08-17T19:19:14.626Z,101326.59
2022-08-17T19:21:53.013Z,101329.97
2022-08-17T19:24:25.303Z,101328.75
2022-08-17T19:27:00.405Z,101336.69
2022-08-17T19:29:46.720Z,101337.56
2022-08-17T19:32:19.884Z,101340.69
2022-08-17T19:34:46.393Z,101338.00
2022-08-17T19:38:01.179Z,101353.94
2022-08-17T19:40:53.198Z,101356.88
2022-08-17T19:43:26.007Z,101353.09
2022-08-17T19:46:14.364Z,101351.25
2022-08-17T19:48:46.716Z,101362.34
2022-08-17T19:51:19.108Z,101364.44
2022-08-17T19:54:08.729Z,101365.44
2022-08-17T19:56:47.401Z,101384.66
2022-08-17T19:59:22.649Z,101382.41
2022-08-17T20:01:52.352Z,101388.88
2022-08-17T20:04:41.472Z,101388.50
2022-08-17T20:07:16.893Z,101394.81
2022-08-17T20:09:54.037Z,101400.47
2022-08-17T20:12:26.517Z,101399.81
2022-08-17T20:15:04.633Z,101407.09
2022-08-17T20:17:37.059Z,101421.38
2022-08-17T20:20:24.827Z,101415.97
2022-08-17T20:23:06.704Z,101407.16
2022-08-17T20:25:36.224Z,101431.22
2022-08-17T20:28:25.773Z,101426.34
2022-08-17T20:30:54.783Z,101421.75
2022-08-17T20:33:29.286Z,101436.38
2022-08-17T20:36:17.647Z,101443.34
2022-08-17T20:38:53.107Z,101453.19
2022-08-17T20:41:22.783Z,101449.47
2022-08-17T20:43:55.087Z,101456.59
2022-08-17T20:46:26.768Z,101447.97
2022-08-17T20:48:56.842Z,101445.44
2022-08-17T20:51:32.397Z,101435.63
2022-08-17T20:54:06.578Z,101425.97
2022-08-17T20:56:46.384Z,101418.00
2022-08-17T20:59:25.549Z,101417.63
2022-08-17T21:02:17.742Z,101421.38
2022-08-17T21:04:52.647Z,101412.16
2022-08-17T21:07:46.961Z,101417.19
2022-08-17T21:10:25.416Z,101413.03
2022-08-17T21:13:00.125Z,101415.38
2022-08-17T21:15:39.390Z,101430.41
2022-08-17T21:18:23.311Z,101427.50
2022-08-17T21:21:17.438Z,101427.69
2022-08-17T21:24:02.777Z,101422.44
2022-08-17T21:26:50.652Z,101439.44
2022-08-17T21:29:31.376Z,101429.16
2022-08-17T21:31:59.342Z,101432.28
2022-08-17T21:34:42.510Z,101437.28
2022-08-17T21:37:26.027Z,101429.34
2022-08-17T21:40:19.486Z,101432.09
2022-08-17T21:42:53.717Z,101442.78
2022-08-17T21:45:30.873Z,101435.03
2022-08-17T21:48:24.192Z,101436.50
2022-08-17T21:50:59.238Z,101434.63
2022-08-17T21:53:33.662Z,101444.44
2022-08-17T21:56:00.785Z,101439.03
2022-08-17T21:58:31.098Z,101447.41
2022-08-17T22:01:13.348Z,101449.47
2022-08-17T22:03:47.610Z,101439.44
2022-08-17T22:06:36.886Z,101426.03
2022-08-17T22:09:09.252Z,101446.13
2022-08-17T22:11:54.592Z,101433.16
2022-08-17T22:14:52.868Z,101445.28
2022-08-17T22:17:35.574Z,101440.28
2022-08-17T22:20:12.012Z,101447.41
2022-08-17T22:23:19.691Z,101437.75
2022-08-17T22:26:02.366Z,101448.25
2022-08-17T22:28:45.624Z,101437.13
2022-08-17T22:31:15.786Z,101423.31
2022-08-17T22:33:44.375Z,101419.34
2022-08-17T22:36:29.211Z,101431.91
2022-08-17T22:38:58.979Z,101424.81
2022-08-17T22:41:53.211Z,101417.03
2022-08-17T22:44:28.000Z,101420.22
2022-08-17T22:47:11.097Z,101413.09
2022-08-17T22:50:01.934Z,101421.69
2022-08-17T22:52:32.171Z,101430.88
2022-08-17T22:55:33.388Z,101430.25
2022-08-17T22:58:19.264Z,101434.03
2022-08-17T23:00:48.149Z,101440.75
2022-08-17T23:03:22.127Z,101439.66
2022-08-17T23:06:03.817Z,101435.91
2022-08-17T23:08:31.750Z,101436.13
2022-08-17T23:11:00.383Z,101446.16
2022-08-17T23:13:27.637Z,101450.56
2022-08-17T23:15:54.098Z,101415.59
2022-08-17T23:18:20.538Z,101452.44
2022-08-17T23:20:46.981Z,101455.56
2022-08-17T23:23:14.212Z,101460.81
2022-08-17T23:25:44.465Z,101461.84
2022-08-17T23:28:11.313Z,101459.56
2022-08-17T23:30:42.768Z,101442.81
2022-08-17T23:33:19.796Z,101452.84
2022-08-17T23:35:46.235Z,101453.94
2022-08-17T23:38:13.749Z,101450.78
2022-08-17T23:40:40.873Z,101450.56
2022-08-17T23:43:24.604Z,101428.81
2022-08-17T23:45:53.921Z,101451.16
2022-08-17T23:48:30.334Z,101444.88
2022-08-17T23:51:05.744Z,101437.75
2022-08-17T23:53:34.402Z,101434.44
2022-08-17T23:56:01.580Z,101447.41
2022-08-17T23:58:38.368Z,101448.03
